Skip Navigation Links
NOAA logo - Click to go to the NOAA homepage
NOAA's National Weather Service
Alaska Aviation Weather Unit
  NWS logo - Click to go to the NWS homepage
Left Navbar Graphic     09 AKDT = 17 GMT

   
NOAA is celebrating 200 years of science, service, and stewardship. Visit the NOAA 200th celebration Web site to learn more.
USA.gov is the U.S. Government's official Web portal to all Federal, state and local government Web resources and services.
Facebook
NWS on Facebook

Important Change Regarding the AAWU Web Presence

 

Over the last several months, the AAWU has been working to navigate its webpages to a nationally supported server. Security, as well as other needs, have necessitated the change.  In the process, we have made an effort to enhance the functionality of our website, as well as some of our products. As of June 20, 2017, aawu.arh.noaa.gov will be discontinued. The new AAWU web address is weather.gov/aawu. It is now live and will run in-parallel with the old site until it is discontinued. Please send any feedback or questions regarding the new webpages to nws.ar.aawu.webauthors@noaa.gov.  Thank you for your patience during this time of transition.
AAWU Home :: Display TAF Add Bookmark
METAR PAVL 271153Z AUTO 15007KT 9SM BKN038 OVC050 03/01 A2988 RMK
 AO2 SLP118 6//// 7//// T00280006 10033 20017 51007 TSNO PNO $=

SPECI PAVL 271226Z AUTO 14006KT 10SM BKN024 BKN032 OVC055 02/00 A2988
     RMK AO2 UPB1154E14 T00220000 TSNO PNO $=

METAR PAVL 271253Z AUTO 13005KT 10SM FEW023 BKN049 OVC060 02/00 A2988
     RMK AO2 UPB1154E14 SLP119 T00220000 TSNO PNO $=

SPECI PAVL 271319Z AUTO 13008KT 5SM -RA BR BKN023 BKN031 OVC060 03/01
     A2989 RMK AO2 RAB15 T00280006 TSNO PNO $=

METAR PAVL 271353Z AUTO 14008KT 3SM -RA BR OVC019 03/01 A2989 RMK AO2
     RAB15UPB25E27 SLP121 T00280011 TSNO PNO $=

METAR PAVL 271453Z AUTO 13009KT 8SM BKN018 OVC025 03/ A2989 RMK AO2
 RAE04UPB04E06B23E35 SLP120 6//// T0028 50002 TSNO PNO $=

METAR PAVL 271553Z AUTO 13009KT 10SM FEW015 BKN024 OVC029 03/ A2989 RMK
     AO2 RAB08E18UPB09E17 SLP122 T0033 TSNO PNO $=

SPECI PAVL 271651Z AUTO 14008KT 4SM BR BKN013 OVC022 03/01 A2990 RMK AO2
     TSNO PNO $=

METAR PAVL 271653Z AUTO 14008KT 4SM BR BKN013 OVC022 03/01 A2990 RMK
 AO2 SLP127 T00280011 TSNO PNO $=

SPECI PAVL 271721Z AUTO 15008KT 10SM SCT013 OVC019 03/02 A2991 RMK
 AO2 UPB1656E06 T00280017 TSNO PNO $=


NOAA's National Weather Service
Alaska Aviation Weather Unit
6930 Sand Lake Road
Anchorage, AK 99502-1845
Disclaimer
Credits
Glossary
Privacy Policy
About Us
Career Opportunities
Contact AAWU Internet Services Site last modified: April, 17th 2012